createdAt,value
2023-04-20T00:00:24.006Z,4.28
2023-04-20T00:02:50.552Z,4.50
2023-04-20T00:05:17.200Z,4.25
2023-04-20T00:07:43.613Z,4.10
2023-04-20T00:10:10.554Z,3.95
2023-04-20T00:12:37.014Z,4.53
2023-04-20T00:15:03.684Z,4.57
2023-04-20T00:17:30.122Z,4.10
2023-04-20T00:19:56.581Z,4.18
2023-04-20T00:22:23.007Z,4.75
2023-04-20T00:24:49.375Z,3.75
2023-04-20T00:27:15.751Z,3.92
2023-04-20T00:29:42.114Z,4.28
2023-04-20T00:32:08.473Z,4.22
2023-04-20T00:34:34.922Z,4.05
2023-04-20T00:37:01.589Z,4.68
2023-04-20T00:39:28.007Z,4.00
2023-04-20T00:41:54.494Z,4.22
2023-04-20T00:44:20.950Z,4.10
2023-04-20T00:46:47.384Z,4.15
2023-04-20T00:49:13.762Z,4.50
2023-04-20T00:51:40.609Z,4.82
2023-04-20T00:54:07.069Z,4.68
2023-04-20T00:56:33.504Z,4.60
2023-04-20T00:58:59.917Z,5.35
2023-04-20T01:01:26.377Z,4.40
2023-04-20T01:03:53.645Z,3.97
2023-04-20T01:06:21.132Z,4.18
2023-04-20T01:08:51.788Z,3.97
2023-04-20T01:11:18.429Z,4.78
2023-04-20T01:13:44.824Z,4.10
2023-04-20T01:16:11.981Z,3.83
2023-04-20T01:18:46.457Z,3.80
2023-04-20T01:21:14.354Z,3.88
2023-04-20T01:23:40.962Z,3.92
2023-04-20T01:26:12.758Z,3.70
2023-04-20T01:28:39.157Z,4.40
2023-04-20T01:31:06.923Z,4.10
2023-04-20T01:33:33.705Z,3.88
2023-04-20T01:36:00.178Z,4.80
2023-04-20T01:38:26.725Z,4.28
2023-04-20T01:40:54.374Z,4.15
2023-04-20T01:43:21.456Z,4.75
2023-04-20T01:45:47.873Z,3.83
2023-04-20T01:48:14.274Z,3.75
2023-04-20T01:50:40.770Z,3.70
2023-04-20T01:53:07.132Z,4.07
2023-04-20T01:55:34.039Z,3.92
2023-04-20T01:58:00.464Z,3.95
2023-04-20T02:00:26.850Z,4.30
2023-04-20T02:02:53.468Z,3.90
2023-04-20T02:05:20.152Z,4.28
2023-04-20T02:07:46.730Z,3.75
2023-04-20T02:10:13.118Z,3.60
2023-04-20T02:12:39.545Z,4.68
2023-04-20T02:15:07.083Z,3.80
2023-04-20T02:17:33.875Z,4.35
2023-04-20T02:20:00.280Z,4.47
2023-04-20T02:22:26.749Z,4.75
2023-04-20T02:24:53.168Z,4.13
2023-04-20T02:27:19.526Z,4.13
2023-04-20T02:29:46.103Z,4.80
2023-04-20T02:32:12.482Z,4.40
2023-04-20T02:34:38.874Z,4.07
2023-04-20T02:37:05.245Z,4.75
2023-04-20T02:39:31.693Z,4.75
2023-04-20T02:41:58.074Z,4.70
2023-04-20T02:44:24.519Z,4.80
2023-04-20T02:46:50.967Z,5.50
2023-04-20T02:49:17.692Z,4.95
2023-04-20T02:51:44.254Z,5.90
2023-04-20T02:54:10.777Z,3.97
2023-04-20T02:56:37.364Z,5.78
2023-04-20T02:59:04.266Z,5.50
2023-04-20T03:01:30.713Z,5.80
2023-04-20T03:03:57.265Z,6.68
2023-04-20T03:06:23.785Z,5.97
2023-04-20T03:08:50.150Z,6.05
2023-04-20T03:11:16.542Z,6.10
2023-04-20T03:13:42.946Z,6.65
2023-04-20T03:16:09.405Z,5.45
2023-04-20T03:18:35.802Z,6.20
2023-04-20T03:21:02.180Z,5.75
2023-04-20T03:23:28.548Z,5.75
2023-04-20T03:25:54.936Z,5.03
2023-04-20T03:28:21.315Z,4.90
2023-04-20T03:30:47.808Z,5.72
2023-04-20T03:33:14.233Z,5.97
2023-04-20T03:35:40.858Z,5.80
2023-04-20T03:38:07.334Z,6.20
2023-04-20T03:40:33.734Z,5.93
2023-04-20T03:43:00.124Z,5.90
2023-04-20T03:45:26.622Z,5.63
2023-04-20T03:47:53.063Z,6.35
2023-04-20T03:50:19.466Z,5.25
2023-04-20T03:52:45.954Z,5.82
2023-04-20T03:55:12.361Z,5.72
2023-04-20T03:57:38.777Z,5.40
2023-04-20T04:00:05.708Z,7.03
2023-04-20T04:02:32.210Z,5.25
2023-04-20T04:04:58.701Z,5.88
2023-04-20T04:07:25.322Z,5.28
2023-04-20T04:09:51.692Z,4.95
2023-04-20T04:12:18.129Z,5.30
2023-04-20T04:14:44.513Z,5.03
2023-04-20T04:17:11.004Z,5.22
2023-04-20T04:19:37.442Z,5.25
2023-04-20T04:22:03.820Z,5.00
2023-04-20T04:24:30.973Z,6.18
2023-04-20T04:26:58.421Z,5.53
2023-04-20T04:29:28.135Z,5.47
2023-04-20T04:31:54.651Z,5.20
2023-04-20T04:34:21.100Z,5.72
2023-04-20T04:36:48.005Z,5.78
2023-04-20T04:39:14.563Z,5.72
2023-04-20T04:41:41.091Z,6.50
2023-04-20T04:44:07.448Z,5.47
2023-04-20T04:46:33.912Z,5.18
2023-04-20T04:49:04.232Z,6.30
2023-04-20T04:51:31.614Z,5.40
2023-04-20T04:53:58.063Z,5.00
2023-04-20T04:56:24.769Z,5.28
2023-04-20T04:58:51.143Z,5.30
2023-04-20T05:01:17.697Z,5.88
2023-04-20T05:03:44.243Z,5.68
2023-04-20T05:06:10.748Z,5.28
2023-04-20T05:08:37.212Z,5.90
2023-04-20T05:11:03.609Z,5.65
2023-04-20T05:13:30.006Z,5.60
2023-04-20T05:15:56.540Z,5.45
2023-04-20T05:18:23.090Z,5.93
2023-04-20T05:20:49.762Z,5.65
2023-04-20T05:23:16.132Z,6.13
2023-04-20T05:25:43.121Z,5.85
2023-04-20T05:28:09.555Z,6.40
2023-04-20T05:30:35.997Z,6.45
2023-04-20T05:33:02.486Z,6.20
2023-04-20T05:35:29.311Z,6.00
2023-04-20T05:37:55.737Z,6.78
2023-04-20T05:40:22.278Z,6.13
2023-04-20T05:42:48.847Z,7.05
2023-04-20T05:45:15.293Z,6.97
2023-04-20T05:47:41.778Z,7.40
2023-04-20T05:50:08.936Z,8.00
2023-04-20T05:52:35.368Z,8.63
2023-04-20T05:55:01.784Z,8.13
2023-04-20T05:57:28.172Z,8.45
2023-04-20T05:59:55.861Z,8.18
2023-04-20T06:02:22.575Z,7.72
2023-04-20T06:04:49.363Z,7.35
2023-04-20T06:07:15.982Z,7.65
2023-04-20T06:09:42.359Z,7.07
2023-04-20T06:12:09.737Z,8.32
2023-04-20T06:14:36.244Z,8.30
2023-04-20T06:17:02.855Z,7.10
2023-04-20T06:19:29.214Z,7.47
2023-04-20T06:21:55.627Z,8.07
2023-04-20T06:24:22.008Z,7.90
2023-04-20T06:26:55.084Z,8.20
2023-04-20T06:29:21.490Z,8.32
2023-04-20T06:31:47.966Z,8.63
2023-04-20T06:34:14.946Z,9.23
2023-04-20T06:36:44.169Z,14.50
2023-04-20T06:39:13.368Z,10.32
2023-04-20T06:41:39.888Z,7.97
2023-04-20T06:44:06.335Z,7.93
2023-04-20T06:46:32.748Z,7.80
2023-04-20T06:48:59.284Z,7.70
2023-04-20T06:51:26.965Z,7.45
2023-04-20T06:53:54.379Z,8.63
2023-04-20T06:56:21.483Z,8.43
2023-04-20T06:58:47.916Z,8.13
2023-04-20T07:01:14.382Z,8.40
2023-04-20T07:03:41.050Z,8.23
2023-04-20T07:06:07.628Z,8.45
2023-04-20T07:08:34.046Z,8.10
2023-04-20T07:11:00.878Z,8.85
2023-04-20T07:13:30.981Z,8.23
2023-04-20T07:15:59.809Z,7.22
2023-04-20T07:18:26.206Z,8.20
2023-04-20T07:20:52.798Z,9.00
2023-04-20T07:23:20.108Z,9.18
2023-04-20T07:25:46.588Z,9.00
2023-04-20T07:28:12.963Z,8.60
2023-04-20T07:30:39.411Z,8.13
2023-04-20T07:33:05.921Z,8.38
2023-04-20T07:35:32.368Z,8.57
2023-04-20T07:37:58.749Z,9.30
2023-04-20T07:40:25.369Z,8.95
2023-04-20T07:42:52.053Z,9.50
2023-04-20T07:45:19.132Z,8.75
2023-04-20T07:47:47.278Z,9.73
2023-04-20T07:50:13.762Z,8.70
2023-04-20T07:52:40.183Z,8.20
2023-04-20T07:55:08.089Z,10.40
2023-04-20T07:57:35.149Z,9.85
2023-04-20T08:00:01.648Z,9.48
2023-04-20T08:02:28.269Z,9.90
2023-04-20T08:04:55.085Z,9.93
2023-04-20T08:07:21.642Z,11.30
2023-04-20T08:09:48.030Z,10.23
2023-04-20T08:12:14.397Z,8.68
2023-04-20T08:14:41.297Z,9.98
2023-04-20T08:17:08.160Z,10.57
2023-04-20T08:19:34.549Z,10.18
2023-04-20T08:22:01.477Z,10.73
2023-04-20T08:24:29.212Z,10.63
2023-04-20T08:26:55.786Z,9.35
2023-04-20T08:29:22.228Z,9.50
2023-04-20T08:31:50.005Z,11.02
2023-04-20T08:34:17.614Z,10.43
2023-04-20T08:36:44.061Z,10.93
2023-04-20T08:39:12.798Z,11.35
2023-04-20T08:41:39.182Z,11.65
2023-04-20T08:44:07.163Z,11.70
2023-04-20T08:46:34.508Z,12.00
2023-04-20T08:49:04.228Z,11.43
2023-04-20T08:51:33.496Z,10.77
2023-04-20T08:54:05.739Z,11.18
2023-04-20T08:56:36.981Z,7.82
2023-04-20T08:59:05.219Z,8.20
2023-04-20T09:01:35.737Z,9.10
2023-04-20T09:04:03.270Z,6.43
2023-04-20T09:06:29.908Z,6.82
2023-04-20T09:08:56.630Z,6.68
2023-04-20T09:11:32.254Z,7.57
2023-04-20T09:14:10.154Z,7.70
2023-04-20T09:16:40.027Z,6.00
2023-04-20T09:19:09.226Z,5.38
2023-04-20T09:21:36.342Z,8.45
2023-04-20T09:24:09.242Z,5.28
2023-04-20T09:26:36.372Z,5.57
2023-04-20T09:29:03.709Z,6.82
2023-04-20T09:31:30.220Z,6.30
2023-04-20T09:34:03.565Z,6.28
2023-04-20T09:36:46.669Z,7.70
2023-04-20T09:39:17.915Z,7.07
2023-04-20T09:41:44.571Z,9.10
2023-04-20T09:44:12.278Z,8.27
2023-04-20T09:46:40.452Z,13.75
2023-04-20T09:49:10.827Z,9.27
2023-04-20T09:51:38.942Z,10.68
2023-04-20T09:54:06.373Z,11.95
2023-04-20T09:56:34.563Z,8.88
2023-04-20T09:59:01.959Z,9.07
2023-04-20T10:01:34.462Z,11.57
2023-04-20T10:04:02.677Z,11.07
2023-04-20T10:06:34.351Z,18.70
2023-04-20T10:09:02.417Z,14.63
2023-04-20T10:11:48.929Z,10.13
2023-04-20T10:14:20.451Z,9.65
2023-04-20T10:16:59.217Z,9.35
2023-04-20T10:19:36.539Z,8.15
2023-04-20T10:22:03.017Z,10.07
2023-04-20T10:24:30.338Z,7.63
2023-04-20T10:26:56.978Z,7.43
2023-04-20T10:29:27.148Z,6.90
2023-04-20T10:31:54.686Z,8.45
2023-04-20T10:34:34.637Z,6.68
2023-04-20T10:37:11.352Z,7.63
2023-04-20T10:39:47.404Z,6.47
2023-04-20T10:42:15.468Z,8.43
2023-04-20T10:44:51.222Z,7.18
2023-04-20T10:47:18.478Z,6.47
2023-04-20T10:49:45.118Z,7.07
2023-04-20T10:52:11.579Z,7.10
2023-04-20T10:54:39.146Z,8.60
2023-04-20T10:57:06.615Z,7.20
2023-04-20T10:59:37.201Z,7.32
2023-04-20T11:02:07.628Z,8.32
2023-04-20T11:04:35.372Z,6.88
2023-04-20T11:07:10.146Z,7.35
2023-04-20T11:09:38.337Z,7.28
2023-04-20T11:12:11.768Z,5.82
2023-04-20T11:14:49.909Z,5.93
2023-04-20T11:17:16.426Z,6.63
2023-04-20T11:19:42.961Z,6.68
2023-04-20T11:22:09.353Z,7.05
2023-04-20T11:24:37.202Z,6.28
2023-04-20T11:27:05.054Z,6.65
2023-04-20T11:29:36.715Z,7.07
2023-04-20T11:32:06.221Z,7.50
2023-04-20T11:34:37.498Z,7.47
2023-04-20T11:37:09.580Z,7.75
2023-04-20T11:42:03.336Z,6.40
2023-04-20T11:44:29.912Z,6.80
2023-04-20T11:46:59.745Z,6.05
2023-04-20T11:49:28.594Z,6.85
2023-04-20T11:51:55.153Z,6.82
2023-04-20T11:54:25.162Z,5.68
2023-04-20T11:56:51.610Z,6.50
2023-04-20T11:59:20.119Z,6.28
2023-04-20T12:01:47.656Z,8.93
2023-04-20T12:04:15.025Z,7.55
2023-04-20T12:06:42.377Z,7.88
2023-04-20T12:09:08.850Z,9.57
2023-04-20T12:11:35.214Z,9.85
2023-04-20T12:14:01.702Z,7.82
2023-04-20T12:16:28.181Z,8.65
2023-04-20T12:18:54.722Z,17.55
2023-04-20T12:21:21.255Z,10.55
2023-04-20T12:23:49.526Z,9.75
2023-04-20T12:26:16.613Z,10.60
2023-04-20T12:28:45.052Z,8.70
2023-04-20T12:31:11.530Z,9.50
2023-04-20T12:33:38.089Z,9.38
2023-04-20T12:36:05.147Z,9.32
2023-04-20T12:38:31.526Z,9.93
2023-04-20T12:40:57.979Z,9.45
2023-04-20T12:43:24.379Z,9.38
2023-04-20T12:45:50.802Z,9.85
2023-04-20T12:48:17.259Z,10.20
2023-04-20T12:50:43.677Z,10.10
2023-04-20T12:53:10.121Z,10.07
2023-04-20T12:55:36.500Z,11.70
2023-04-20T12:58:02.889Z,11.40
2023-04-20T13:00:29.370Z,11.60
2023-04-20T13:02:55.796Z,11.30
2023-04-20T13:05:22.270Z,9.73
2023-04-20T13:07:48.720Z,10.10
2023-04-20T13:10:15.935Z,11.88
2023-04-20T13:12:42.364Z,10.13
2023-04-20T13:15:09.347Z,11.55
2023-04-20T13:17:36.094Z,10.77
2023-04-20T13:20:02.700Z,9.88
2023-04-20T13:22:29.135Z,11.38
2023-04-20T13:24:55.575Z,10.43
2023-04-20T13:27:22.013Z,9.73
2023-04-20T13:29:48.431Z,10.63
2023-04-20T13:32:14.934Z,9.25
2023-04-20T13:34:41.364Z,10.00
2023-04-20T13:37:07.797Z,10.05
2023-04-20T13:39:34.629Z,8.85
2023-04-20T13:42:01.646Z,8.95
2023-04-20T13:44:28.104Z,8.70
2023-04-20T13:46:54.492Z,8.95
2023-04-20T13:49:23.507Z,9.30
2023-04-20T13:51:50.198Z,9.00
2023-04-20T13:54:16.989Z,9.32
2023-04-20T13:56:43.589Z,9.27
2023-04-20T13:59:10.118Z,8.65
2023-04-20T14:01:36.787Z,8.95
2023-04-20T14:04:03.658Z,8.20
2023-04-20T14:06:31.039Z,8.48
2023-04-20T14:08:57.441Z,9.05
2023-04-20T14:11:23.850Z,7.93
2023-04-20T14:13:50.295Z,7.85
2023-04-20T14:16:16.807Z,7.95
2023-04-20T14:18:43.342Z,8.55
2023-04-20T14:21:09.739Z,7.43
2023-04-20T14:23:36.231Z,8.27
2023-04-20T14:26:03.853Z,8.90
2023-04-20T14:28:32.868Z,8.43
2023-04-20T14:31:00.785Z,7.35
2023-04-20T14:33:27.801Z,6.72
2023-04-20T14:35:54.234Z,8.02
2023-04-20T14:38:20.604Z,7.75
2023-04-20T14:40:48.265Z,8.18
2023-04-20T14:43:14.648Z,8.05
2023-04-20T14:45:41.665Z,7.18
2023-04-20T14:48:08.079Z,6.35
2023-04-20T14:50:34.694Z,7.57
2023-04-20T14:53:01.137Z,7.50
2023-04-20T14:55:28.635Z,7.88
2023-04-20T14:57:56.828Z,7.97
2023-04-20T15:00:24.983Z,6.90
2023-04-20T15:02:53.452Z,7.18
2023-04-20T15:05:20.187Z,7.50
2023-04-20T15:07:50.481Z,12.25
2023-04-20T15:10:18.737Z,7.97
2023-04-20T15:12:45.845Z,6.97
2023-04-20T15:15:12.211Z,8.65
2023-04-20T15:17:38.722Z,6.75
2023-04-20T15:20:06.419Z,8.85
2023-04-20T15:22:32.845Z,7.57
2023-04-20T15:24:59.205Z,6.78
2023-04-20T15:27:25.570Z,6.43
2023-04-20T15:29:51.971Z,7.03
2023-04-20T15:32:18.434Z,5.90
2023-04-20T15:34:44.911Z,6.93
2023-04-20T15:37:11.300Z,6.75
2023-04-20T15:39:37.733Z,7.45
2023-04-20T15:42:04.206Z,6.85
2023-04-20T15:44:30.722Z,6.05
2023-04-20T15:46:58.243Z,6.63
2023-04-20T15:49:24.696Z,5.72
2023-04-20T15:51:51.113Z,6.68
2023-04-20T15:54:19.424Z,5.90
2023-04-20T15:56:46.157Z,6.95
2023-04-20T15:59:12.542Z,6.20
2023-04-20T16:01:38.962Z,6.05
2023-04-20T16:04:05.941Z,6.85
2023-04-20T16:06:32.448Z,5.85
2023-04-20T16:08:58.842Z,5.57
2023-04-20T16:11:25.233Z,6.18
2023-04-20T16:13:51.626Z,6.68
2023-04-20T16:16:18.062Z,6.28
2023-04-20T16:18:44.519Z,6.45
2023-04-20T16:21:10.873Z,6.07
2023-04-20T16:23:37.299Z,6.35
2023-04-20T16:26:03.800Z,6.35
2023-04-20T16:28:30.512Z,6.90
2023-04-20T16:30:57.553Z,6.75
2023-04-20T16:33:24.388Z,6.47
2023-04-20T16:35:51.754Z,6.47
2023-04-20T16:38:19.258Z,6.57
2023-04-20T16:40:45.670Z,6.80
2023-04-20T16:43:12.030Z,7.13
2023-04-20T16:45:38.984Z,6.30
2023-04-20T16:48:05.559Z,7.05
2023-04-20T16:50:32.253Z,6.80
2023-04-20T16:52:58.938Z,6.03
2023-04-20T16:55:26.037Z,7.10
2023-04-20T16:57:59.510Z,7.70
2023-04-20T17:00:29.987Z,9.18
2023-04-20T17:02:56.898Z,9.55
2023-04-20T17:05:24.432Z,12.02
2023-04-20T17:07:50.926Z,13.85
2023-04-20T17:10:17.504Z,8.07
2023-04-20T17:12:43.924Z,11.15
2023-04-20T17:15:10.674Z,7.60
2023-04-20T17:17:37.182Z,10.68
2023-04-20T17:20:07.172Z,9.07
2023-04-20T17:22:35.164Z,8.88
2023-04-20T17:25:01.986Z,12.90
2023-04-20T17:27:28.367Z,9.30
2023-04-20T17:29:55.972Z,10.00
2023-04-20T17:32:22.635Z,9.35
2023-04-20T17:34:51.281Z,9.48
2023-04-20T17:37:18.060Z,10.73
2023-04-20T17:39:44.471Z,9.18
2023-04-20T17:42:12.291Z,9.35
2023-04-20T17:44:39.184Z,9.80
2023-04-20T17:47:06.494Z,9.27
2023-04-20T17:49:34.717Z,9.75
2023-04-20T17:52:01.226Z,11.40
2023-04-20T17:54:27.605Z,10.90
2023-04-20T17:56:54.056Z,10.10
2023-04-20T17:59:20.676Z,10.10
2023-04-20T18:01:49.174Z,9.85
2023-04-20T18:04:16.264Z,9.93
2023-04-20T18:06:42.917Z,10.38
2023-04-20T18:09:09.872Z,9.15
2023-04-20T18:11:36.302Z,10.27
2023-04-20T18:14:02.766Z,10.15
2023-04-20T18:16:29.328Z,10.52
2023-04-20T18:18:55.788Z,10.13
2023-04-20T18:21:22.223Z,10.80
2023-04-20T18:23:48.646Z,10.43
2023-04-20T18:26:17.669Z,10.95
2023-04-20T18:28:44.882Z,11.50
2023-04-20T18:31:11.723Z,10.38
2023-04-20T18:33:38.165Z,11.77
2023-04-20T18:36:05.471Z,12.75
2023-04-20T18:38:32.454Z,11.10
2023-04-20T18:40:59.740Z,10.98
2023-04-20T18:43:26.502Z,11.38
2023-04-20T18:45:52.853Z,12.35
2023-04-20T18:48:19.184Z,12.68
2023-04-20T18:50:47.436Z,13.65
2023-04-20T18:53:14.537Z,14.10
2023-04-20T18:55:41.290Z,13.98
2023-04-20T18:58:07.734Z,13.73
2023-04-20T19:00:34.180Z,15.10
2023-04-20T19:03:00.754Z,14.65
2023-04-20T19:05:27.258Z,14.90
2023-04-20T19:07:53.631Z,15.80
2023-04-20T19:10:20.064Z,15.88
2023-04-20T19:12:46.428Z,16.55
2023-04-20T19:15:12.824Z,17.40
2023-04-20T19:17:39.350Z,16.88
2023-04-20T19:20:06.532Z,16.83
2023-04-20T19:22:33.077Z,18.50
2023-04-20T19:24:59.463Z,19.00
2023-04-20T19:27:26.461Z,18.50
2023-04-20T19:29:52.879Z,17.73
2023-04-20T19:32:19.403Z,18.77
2023-04-20T19:34:45.880Z,18.52
2023-04-20T19:37:12.299Z,19.25
2023-04-20T19:39:38.756Z,18.52
2023-04-20T19:42:05.132Z,17.98
2023-04-20T19:44:31.564Z,19.27
2023-04-20T19:46:57.963Z,19.98
2023-04-20T19:49:24.387Z,18.60
2023-04-20T19:51:50.751Z,19.10
2023-04-20T19:54:17.485Z,18.08
2023-04-20T19:56:43.883Z,19.50
2023-04-20T19:59:10.317Z,18.83
2023-04-20T20:01:36.734Z,19.98
2023-04-20T20:04:03.269Z,19.02
2023-04-20T20:06:29.838Z,18.60
2023-04-20T20:08:56.714Z,17.55
2023-04-20T20:11:25.133Z,19.20
2023-04-20T20:13:51.982Z,18.38
2023-04-20T20:16:19.098Z,17.65
2023-04-20T20:18:47.953Z,17.98
2023-04-20T20:21:14.331Z,17.27
2023-04-20T20:23:40.735Z,17.30
2023-04-20T20:26:07.161Z,17.20
2023-04-20T20:28:33.609Z,18.13
2023-04-20T20:31:00.366Z,17.15
2023-04-20T20:33:26.873Z,16.35
2023-04-20T20:35:53.321Z,16.73
2023-04-20T20:38:20.932Z,16.45
2023-04-20T20:40:50.448Z,16.00
2023-04-20T20:43:18.245Z,15.13
2023-04-20T20:45:44.770Z,15.32
2023-04-20T20:48:11.171Z,13.60
2023-04-20T20:50:37.563Z,15.18
2023-04-20T20:53:03.957Z,14.85
2023-04-20T20:55:30.636Z,16.13
2023-04-20T20:57:57.005Z,16.50
2023-04-20T21:00:23.702Z,16.70
2023-04-20T21:02:50.658Z,16.33
2023-04-20T21:05:17.115Z,17.20
2023-04-20T21:07:43.487Z,15.65
2023-04-20T21:10:11.736Z,16.67
2023-04-20T21:12:38.142Z,16.05
2023-04-20T21:15:04.845Z,16.35
2023-04-20T21:17:31.319Z,15.40
2023-04-20T21:19:57.711Z,16.40
2023-04-20T21:22:24.132Z,17.23
2023-04-20T21:24:50.569Z,20.55
2023-04-20T21:27:17.021Z,18.80
2023-04-20T21:29:43.386Z,15.98
2023-04-20T21:32:09.804Z,17.05
2023-04-20T21:34:36.294Z,16.67
2023-04-20T21:37:05.722Z,16.63
2023-04-20T21:39:32.347Z,16.85
2023-04-20T21:41:59.615Z,17.77
2023-04-20T21:44:26.239Z,17.80
2023-04-20T21:46:52.667Z,15.45
2023-04-20T21:49:19.425Z,16.75
2023-04-20T21:51:45.932Z,18.35
2023-04-20T21:54:12.403Z,23.13
2023-04-20T21:56:38.796Z,18.30
2023-04-20T21:59:05.226Z,17.30
2023-04-20T22:01:31.673Z,17.48
2023-04-20T22:03:58.253Z,18.23
2023-04-20T22:06:24.800Z,17.77
2023-04-20T22:08:51.244Z,18.20
2023-04-20T22:11:17.696Z,18.05
2023-04-20T22:13:45.187Z,18.17
2023-04-20T22:16:11.637Z,19.90
2023-04-20T22:18:38.024Z,18.35
2023-04-20T22:21:04.415Z,19.05
2023-04-20T22:23:30.823Z,19.38
2023-04-20T22:25:57.187Z,18.90
2023-04-20T22:28:23.587Z,21.10
2023-04-20T22:30:50.031Z,20.35
2023-04-20T22:33:16.569Z,20.48
2023-04-20T22:35:43.002Z,21.48
2023-04-20T22:38:09.421Z,20.75
2023-04-20T22:40:35.796Z,19.95
2023-04-20T22:43:02.181Z,20.17
2023-04-20T22:45:28.720Z,23.77
2023-04-20T22:47:55.175Z,21.85
2023-04-20T22:50:21.596Z,27.38
2023-04-20T22:52:49.514Z,24.30
2023-04-20T22:55:16.060Z,24.60
2023-04-20T22:57:42.498Z,22.00
2023-04-20T23:00:13.825Z,23.90
2023-04-20T23:02:40.856Z,22.73
2023-04-20T23:05:07.615Z,24.15
2023-04-20T23:07:34.050Z,24.17
2023-04-20T23:10:01.357Z,24.75
2023-04-20T23:12:29.352Z,23.95
2023-04-20T23:15:00.334Z,24.15
2023-04-20T23:17:27.963Z,23.80
2023-04-20T23:19:55.124Z,24.27
2023-04-20T23:22:21.500Z,26.63
2023-04-20T23:24:47.876Z,25.80
2023-04-20T23:27:14.241Z,24.98
2023-04-20T23:29:41.388Z,23.23
2023-04-20T23:32:07.811Z,22.65
2023-04-20T23:34:34.230Z,23.02
2023-04-20T23:37:00.641Z,25.52
2023-04-20T23:39:27.035Z,24.40
2023-04-20T23:41:53.509Z,25.10
2023-04-20T23:44:19.928Z,25.20
2023-04-20T23:46:46.642Z,24.77
2023-04-20T23:49:13.064Z,24.20
2023-04-20T23:51:39.485Z,23.35
2023-04-20T23:54:05.875Z,24.83
2023-04-20T23:56:32.247Z,23.48
2023-04-20T23:58:59.128Z,25.63
